Time;durP1;ratioP1;P1;durP2;ratioP2;P2;SDS_P1;SDS_P2;PMS_P1;PMS_P2;Temp;Humidity;BMP_temperature;BMP_pressure;BME280_temperature;BME280_humidity;BME280_pressure;Samples;Min_cycle;Max_cycle;Signal;HPM_P1;HPM_P2
2021/06/11 06:14:42;;;;;;;28.27;20.13;;;;;;;14.84;84.22;99340.44;4876608;29;20067;-78
2021/06/11 06:17:10;;;;;;;26.48;19.20;;;;;;;14.85;83.98;99331.00;4878352;29;20071;-80
2021/06/11 06:19:37;;;;;;;31.60;20.05;;;;;;;14.75;83.94;99321.25;4878509;29;20073;-78
2021/06/11 06:22:05;;;;;;;29.30;19.85;;;;;;;14.84;84.03;99337.66;4878103;29;20045;-81
2021/06/11 06:24:30;;;;;;;22.70;17.65;;;;;;;14.78;83.77;99343.38;4886035;29;20044;-84
2021/06/11 06:26:56;;;;;;;26.95;19.02;;;;;;;14.76;83.94;99340.16;4895405;29;20402;-81
2021/06/11 06:29:22;;;;;;;26.20;18.17;;;;;;;14.76;83.64;99339.34;4877339;29;20053;-80
2021/06/11 06:31:48;;;;;;;28.85;20.58;;;;;;;14.77;84.10;99344.53;4886060;29;20136;-75
2021/06/11 06:34:14;;;;;;;31.30;20.77;;;;;;;14.86;84.36;99346.38;4877511;29;20052;-76
2021/06/11 06:36:40;;;;;;;28.00;19.38;;;;;;;14.73;84.07;99335.31;4877794;29;20041;-75
2021/06/11 06:39:07;;;;;;;24.65;19.27;;;;;;;14.74;83.57;99345.22;4877220;29;20041;-75
2021/06/11 06:41:35;;;;;;;22.63;18.13;;;;;;;14.76;83.87;99356.66;4876274;29;20045;-75
2021/06/11 06:44:01;;;;;;;28.20;18.85;;;;;;;14.73;84.09;99346.34;4882174;29;20049;-77
2021/06/11 06:46:29;;;;;;;23.00;18.90;;;;;;;14.77;84.14;99352.78;4878229;29;20059;-80
2021/06/11 06:48:55;;;;;;;30.10;20.33;;;;;;;14.75;84.29;99354.25;4875835;29;20422;-78
2021/06/11 06:51:25;;;;;;;24.55;18.00;;;;;;;14.82;84.19;99353.72;4877849;29;20041;-79
2021/06/11 06:53:52;;;;;;;36.78;21.20;;;;;;;14.82;84.63;99345.47;4879662;29;20100;-83
2021/06/11 06:56:21;;;;;;;26.08;19.08;;;;;;;14.74;84.70;99336.16;4881185;29;20045;-83
2021/06/11 06:58:47;;;;;;;29.55;21.75;;;;;;;14.88;85.37;99346.84;4874908;29;20049;-76
2021/06/11 07:01:13;;;;;;;36.00;26.43;;;;;;;15.02;85.17;99342.63;4875531;29;20045;-78
2021/06/11 07:03:39;;;;;;;26.50;21.60;;;;;;;15.12;84.47;99337.81;4871899;29;20056;-77
2021/06/11 07:06:07;;;;;;;28.25;22.05;;;;;;;15.11;84.93;99350.00;4879107;29;20045;-76
2021/06/11 07:08:33;;;;;;;29.15;21.35;;;;;;;15.30;84.63;99343.91;4889329;29;20048;-77
2021/06/11 07:11:00;;;;;;;25.48;19.35;;;;;;;15.41;83.85;99337.59;4881200;29;20028;-82
2021/06/11 07:13:27;;;;;;;20.33;16.98;;;;;;;15.48;83.61;99331.53;4880596;29;20055;-79
2021/06/11 07:15:55;;;;;;;22.63;18.08;;;;;;;15.52;83.66;99327.72;4883988;29;20057;-86
2021/06/11 07:18:21;;;;;;;18.63;15.63;;;;;;;15.59;83.20;99337.34;4882431;29;20045;-86
2021/06/11 07:20:47;;;;;;;19.43;15.80;;;;;;;15.56;83.07;99327.81;4878627;29;20060;-83
2021/06/11 07:23:13;;;;;;;31.67;16.48;;;;;;;15.50;83.25;99330.03;4881275;29;20048;-75
2021/06/11 07:25:40;;;;;;;21.48;15.13;;;;;;;15.50;82.99;99332.78;4877380;29;20049;-80
2021/06/11 07:28:06;;;;;;;25.13;15.57;;;;;;;15.54;83.04;99327.38;4877971;29;20525;-75
2021/06/11 07:30:32;;;;;;;23.88;14.70;;;;;;;15.61;83.41;99326.81;4885175;29;20058;-82
2021/06/11 07:32:58;;;;;;;15.55;13.18;;;;;;;15.64;82.13;99321.41;4883015;29;20494;-80
2021/06/11 07:35:25;;;;;;;17.30;14.52;;;;;;;15.53;82.84;99339.56;4882921;29;20041;-81
2021/06/11 07:37:51;;;;;;;20.42;15.60;;;;;;;15.52;83.07;99340.69;4881864;29;20123;-79
2021/06/11 07:40:19;;;;;;;18.63;13.80;;;;;;;15.54;82.82;99341.16;4882887;29;20092;-80
2021/06/11 07:42:45;;;;;;;24.50;14.68;;;;;;;15.48;83.24;99351.59;4883427;29;20056;-85
2021/06/11 07:45:12;;;;;;;16.47;13.70;;;;;;;15.42;82.90;99330.13;4880013;29;20105;-79
2021/06/11 07:47:38;;;;;;;18.33;13.68;;;;;;;15.62;82.47;99347.69;4883309;29;20033;-80
2021/06/11 07:50:07;;;;;;;16.33;14.02;;;;;;;15.66;82.62;99351.34;4888613;29;20705;-79
2021/06/11 07:52:36;;;;;;;20.00;16.55;;;;;;;15.55;83.20;99328.97;4889827;29;20617;-80
2021/06/11 07:55:07;;;;;;;14.73;12.68;;;;;;;15.50;82.47;99341.06;4883642;29;20044;-82
2021/06/11 07:57:34;;;;;;;14.38;12.20;;;;;;;15.56;82.57;99349.88;4885206;29;20532;-78
2021/06/11 08:00:01;;;;;;;17.20;13.57;;;;;;;15.48;82.91;99335.06;4894463;29;20064;-79
2021/06/11 08:02:28;;;;;;;16.77;14.52;;;;;;;15.48;82.81;99350.81;4889937;29;20511;-82
2021/06/11 08:04:54;;;;;;;20.17;15.38;;;;;;;15.58;82.79;99347.59;4884489;29;20057;-81
2021/06/11 08:07:21;;;;;;;;;;;;;;;15.61;83.42;99352.41;4862794;29;20076;-81
2021/06/11 08:09:47;;;;;;;24.20;16.25;;;;;;;15.49;82.82;99350.44;4889929;29;19931;-84
2021/06/11 08:12:14;;;;;;;18.00;15.20;;;;;;;15.54;83.08;99345.88;4879727;29;20049;-85
2021/06/11 08:14:40;;;;;;;19.17;16.52;;;;;;;15.51;83.16;99352.88;4891600;29;20105;-80
2021/06/11 08:17:07;;;;;;;23.75;18.33;;;;;;;15.33;83.17;99335.78;4876769;29;20044;-80
2021/06/11 08:19:33;;;;;;;21.92;16.77;;;;;;;15.48;83.18;99351.59;4879988;29;20379;-86
2021/06/11 08:21:59;;;;;;;24.25;20.30;;;;;;;15.60;83.84;99350.81;4883832;29;20041;-84
2021/06/11 08:24:25;;;;;;;25.88;19.08;;;;;;;15.62;83.66;99348.50;4880102;29;20192;-79
2021/06/11 08:26:51;;;;;;;24.77;17.85;;;;;;;15.63;83.06;99349.28;4884755;29;20037;-80
2021/06/11 08:29:17;;;;;;;23.70;18.92;;;;;;;15.67;83.11;99364.84;4876217;29;20068;-80
2021/06/11 08:31:44;;;;;;;31.42;19.08;;;;;;;15.72;82.90;99356.31;4879945;29;20105;-80
2021/06/11 08:34:19;;;;;;;23.30;19.33;;;;;;;15.72;83.35;99358.28;4891413;29;20135;-86
2021/06/11 08:46:33;;;;;;;27.63;22.85;;;;;;;15.61;82.81;99359.88;5151891;23;20057;-85
2021/06/11 08:49:01;;;;;;;28.40;21.52;;;;;;;15.73;82.83;99368.16;4880910;29;20120;-86
2021/06/11 08:51:32;;;;;;;32.10;23.98;;;;;;;15.55;83.05;99340.00;4878769;29;20048;-86
2021/06/11 08:53:59;;;;;;;34.72;26.05;;;;;;;15.62;82.85;99351.25;4878595;29;20526;-90
2021/06/11 08:56:24;;;;;;;42.25;26.83;;;;;;;15.55;83.09;99331.75;4879570;29;20045;-86
2021/06/11 08:58:52;;;;;;;38.65;27.70;;;;;;;15.59;82.67;99346.44;4882169;29;20037;-86
2021/06/11 09:01:18;;;;;;;35.78;28.40;;;;;;;15.66;82.79;99351.34;4883466;29;20037;-87
2021/06/11 09:03:50;;;;;;;36.35;28.00;;;;;;;15.52;82.96;99326.91;4882438;29;20081;-89
2021/06/11 09:06:17;;;;;;;35.90;28.55;;;;;;;15.68;82.80;99349.91;4885913;29;20547;-86
2021/06/11 09:08:55;;;;;;;35.05;27.88;;;;;;;15.71;83.10;99353.91;4885362;29;20387;-90
2021/06/11 09:11:26;;;;;;;30.77;24.73;;;;;;;15.56;82.09;99338.03;4889017;29;20037;-89
2021/06/11 09:14:07;;;;;;;34.40;23.27;;;;;;;15.77;82.27;99358.06;4886943;29;20048;-86
2021/06/11 09:16:43;;;;;;;40.38;25.40;;;;;;;15.87;82.86;99365.03;4910250;29;20407;-89
2021/06/11 09:19:18;;;;;;;35.47;24.75;;;;;;;15.88;82.45;99359.16;4885348;29;20041;-89
2021/06/11 09:21:58;;;;;;;27.45;20.83;;;;;;;15.95;81.94;99355.84;4881454;29;20052;-86
2021/06/11 09:24:26;;;;;;;31.35;22.08;;;;;;;16.09;81.99;99359.03;4882291;29;20049;-88
2021/06/11 09:26:58;;;;;;;28.55;21.85;;;;;;;16.19;81.73;99363.22;4888028;29;20056;-85
2021/06/11 09:29:28;;;;;;;27.25;20.27;;;;;;;16.23;80.68;99358.66;4915351;29;20098;-86
2021/06/11 09:32:09;;;;;;;34.97;23.42;;;;;;;16.17;81.63;99352.56;4877945;29;20147;-81
2021/06/11 09:34:36;;;;;;;34.70;23.65;;;;;;;16.17;81.41;99357.28;4876002;29;20044;-81
2021/06/11 09:37:11;;;;;;;34.67;23.13;;;;;;;16.18;81.64;99359.69;4874666;29;20523;-81
2021/06/11 09:39:48;;;;;;;34.33;23.73;;;;;;;16.20;81.51;99362.91;4871610;29;20051;-78
2021/06/11 09:42:16;;;;;;;;;;;;;;;16.21;81.92;99358.97;4873196;29;20049;-82
2021/06/11 09:45:00;;;;;;;38.08;23.25;;;;;;;16.15;81.31;99343.81;4878622;29;19924;-82
2021/06/11 09:47:44;;;;;;;40.38;25.70;;;;;;;16.19;81.86;99354.97;4878101;29;20044;-81
2021/06/11 09:50:17;;;;;;;45.05;27.60;;;;;;;16.21;81.58;99358.97;4877658;29;20049;-82
2021/06/11 09:53:04;;;;;;;42.08;28.13;;;;;;;16.13;81.41;99346.16;4875384;29;20184;-84
2021/06/11 09:55:42;;;;;;;45.72;29.30;;;;;;;16.22;81.13;99357.03;4885418;29;20491;-84
2021/06/11 09:58:14;;;;;;;56.00;37.70;;;;;;;16.32;82.28;99364.00;4867701;29;20535;-84
2021/06/11 10:00:49;;;;;;;57.05;38.50;;;;;;;16.33;81.98;99354.59;4868119;29;20044;-83
2021/06/11 10:03:23;;;;;;;65.55;44.72;;;;;;;16.38;82.08;99363.41;4867827;29;20395;-83
2021/06/11 10:05:50;;;;;;;61.10;42.70;;;;;;;16.42;81.64;99356.06;4868764;29;20073;-83
2021/06/11 10:08:18;;;;;;;61.47;43.35;;;;;;;16.43;81.25;99362.38;4904876;29;20476;-84
2021/06/11 10:10:46;;;;;;;63.15;42.10;;;;;;;16.39;81.56;99355.91;4874325;29;20537;-85
2021/06/11 10:13:13;;;;;;;62.42;42.70;;;;;;;16.52;81.71;99346.44;4877172;29;20063;-85
2021/06/11 10:15:41;;;;;;;49.95;36.72;;;;;;;16.58;81.25;99349.75;4873760;29;20041;-86
2021/06/11 10:20:36;;;;;;;49.65;35.63;;;;;;;16.91;80.96;99361.34;4876317;29;20091;-77
2021/06/11 10:23:06;;;;;;;50.78;32.00;;;;;;;16.88;80.63;99347.44;4878491;29;20045;-86
2021/06/11 10:25:32;;;;;;;45.03;32.13;;;;;;;16.94;80.55;99361.81;4907494;29;20057;-85
2021/06/11 10:28:01;;;;;;;43.28;31.38;;;;;;;16.91;80.38;99368.81;4872392;29;20055;-84
2021/06/11 10:30:29;;;;;;;51.20;34.58;;;;;;;16.92;80.63;99367.69;4880918;29;20039;-85
2021/06/11 10:32:56;;;;;;;45.92;31.80;;;;;;;16.77;79.91;99354.66;4912260;29;20048;-87
2021/06/11 10:35:46;;;;;;;50.47;36.03;;;;;;;16.90;80.72;99373.53;4878801;29;20705;-84
2021/06/11 10:38:35;;;;;;;51.58;34.80;;;;;;;16.97;80.48;99378.47;4882127;29;20052;-78
2021/06/11 10:41:03;;;;;;;47.40;32.80;;;;;;;16.91;80.20;99368.81;4889104;29;20040;-78
2021/06/11 10:43:34;;;;;;;49.08;31.75;;;;;;;17.00;80.03;99375.00;4887256;29;20045;-78
2021/06/11 10:46:06;;;;;;;50.67;33.20;;;;;;;17.01;80.61;99378.56;4880369;29;20136;-79
2021/06/11 10:48:55;;;;;;;48.60;32.53;;;;;;;17.10;80.38;99376.44;4858366;29;20046;-79
2021/06/11 10:51:36;;;;;;;47.67;33.40;;;;;;;17.16;80.61;99379.75;4879630;29;20033;-79
2021/06/11 10:54:25;;;;;;;50.53;33.97;;;;;;;17.23;80.48;99385.44;4877593;29;20041;-79
2021/06/11 10:56:57;;;;;;;47.88;32.33;;;;;;;17.23;80.26;99385.44;4879027;29;20049;-78
2021/06/11 10:59:48;;;;;;;40.00;28.33;;;;;;;17.18;80.10;99371.88;4860921;29;20068;-78
2021/06/11 11:02:17;;;;;;;42.88;29.67;;;;;;;17.18;80.01;99367.16;4879740;29;20036;-79
2021/06/11 11:04:50;;;;;;;44.05;29.60;;;;;;;17.22;80.09;99372.75;4871942;29;20051;-80
2021/06/11 11:07:23;;;;;;;40.88;28.65;;;;;;;17.31;79.76;99376.97;4877360;29;20048;-77
2021/06/11 11:09:51;;;;;;;38.92;26.73;;;;;;;17.30;79.75;99363.50;4876072;29;20148;-77
2021/06/11 11:12:19;;;;;;;42.00;27.25;;;;;;;17.32;79.83;99372.25;4881346;29;20045;-78
2021/06/11 11:14:45;;;;;;;42.10;26.95;;;;;;;17.32;79.58;99369.50;4874999;29;20072;-77
2021/06/11 11:17:13;;;;;;;36.95;26.40;;;;;;;17.34;79.70;99370.72;4871907;29;20056;-79
2021/06/11 11:20:05;;;;;;;44.90;25.80;;;;;;;17.41;79.80;99364.56;4876860;29;20507;-82
2021/06/11 11:22:33;;;;;;;43.08;28.30;;;;;;;17.43;80.17;99365.03;4872157;29;20118;-81
2021/06/11 11:25:14;;;;;;;38.30;27.25;;;;;;;17.20;80.19;99345.50;4877136;29;20049;-82
2021/06/11 11:27:46;;;;;;;41.15;27.65;;;;;;;17.33;80.19;99369.13;4868901;29;20056;-81
2021/06/11 11:30:13;;;;;;;38.95;28.40;;;;;;;17.43;80.38;99367.78;4899776;29;20052;-79
2021/06/11 11:32:39;;;;;;;42.35;25.33;;;;;;;17.45;79.80;99368.25;4873595;29;20049;-81
2021/06/11 11:35:06;;;;;;;39.10;26.50;;;;;;;17.36;79.69;99340.00;4877631;29;20476;-78
2021/06/11 11:37:33;;;;;;;43.22;25.80;;;;;;;17.50;79.58;99362.44;4875728;29;20435;-82
2021/06/11 11:40:00;;;;;;;43.20;26.40;;;;;;;17.53;79.96;99361.72;4881352;29;20549;-80
2021/06/11 11:42:26;;;;;;;44.15;26.00;;;;;;;17.56;79.84;99358.25;4880723;29;20045;-75
2021/06/11 11:44:52;;;;;;;35.43;25.30;;;;;;;17.53;79.50;99339.59;4880279;29;20105;-76
2021/06/11 11:47:18;;;;;;;41.25;25.17;;;;;;;17.80;79.76;99365.53;4880768;29;20053;-75
2021/06/11 11:49:44;;;;;;;41.30;25.30;;;;;;;17.88;79.94;99365.69;4880955;29;20040;-75
2021/06/11 11:52:10;;;;;;;41.20;25.83;;;;;;;17.84;79.36;99349.81;4881095;29;20117;-74
2021/06/11 11:54:36;;;;;;;46.30;26.08;;;;;;;18.00;79.78;99352.53;4879732;29;20045;-77
2021/06/11 11:57:03;;;;;;;;;;;;;;;18.04;79.20;99344.31;4881266;29;20044;-75
2021/06/11 11:59:29;;;;;;;30.58;23.02;;;;;;;18.05;78.19;99343.19;4881019;29;19924;-74
2021/06/11 12:01:55;;;;;;;36.63;25.03;;;;;;;18.07;79.54;99338.88;4880816;29;20451;-74
2021/06/11 12:04:22;;;;;;;31.07;22.40;;;;;;;18.21;78.99;99351.41;4880829;29;20316;-76
2021/06/11 12:06:49;;;;;;;25.55;20.10;;;;;;;18.37;77.90;99337.50;4880771;29;20077;-76
2021/06/11 12:09:17;;;;;;;34.45;21.20;;;;;;;18.45;77.53;99336.50;4880766;29;20056;-75
2021/06/11 12:11:43;;;;;;;37.30;21.23;;;;;;;18.48;77.57;99330.22;4880394;29;20041;-84
2021/06/11 12:14:09;;;;;;;30.97;21.60;;;;;;;18.55;77.93;99327.59;4880857;29;20045;-76
2021/06/11 12:16:35;;;;;;;33.90;22.17;;;;;;;18.66;77.25;99334.13;4880149;29;20052;-76
2021/06/11 12:19:02;;;;;;;29.02;20.02;;;;;;;18.74;76.38;99333.13;4879439;29;20136;-75
2021/06/11 12:21:28;;;;;;;31.23;20.27;;;;;;;18.73;76.67;99333.47;4874277;29;20041;-75
2021/06/11 12:23:54;;;;;;;28.52;21.17;;;;;;;18.66;77.18;99331.34;4880576;29;20080;-76
2021/06/11 12:26:23;;;;;;;34.08;22.15;;;;;;;18.71;76.99;99333.03;4879790;29;20049;-76
2021/06/11 12:28:49;;;;;;;28.70;20.93;;;;;;;18.77;76.77;99329.63;4880622;29;20049;-76
2021/06/11 12:31:15;;;;;;;29.80;20.67;;;;;;;18.79;76.07;99326.47;4880179;29;20067;-75
2021/06/11 13:11:16;;;;;;;27.60;19.55;;;;;;;18.84;76.94;99309.56;5516163;23;20049;-73
2021/06/11 13:13:44;;;;;;;30.38;18.10;;;;;;;18.80;76.14;99317.00;4879629;29;20045;-75
2021/06/11 13:16:10;;;;;;;33.63;18.67;;;;;;;18.80;76.37;99303.16;4876882;29;20044;-73
2021/06/11 13:18:36;;;;;;;31.20;19.40;;;;;;;18.87;76.53;99302.47;4864182;29;20049;-76
2021/06/11 13:21:03;;;;;;;30.57;19.40;;;;;;;18.97;76.20;99301.84;4860868;29;20045;-74
2021/06/11 13:23:30;;;;;;;31.05;18.08;;;;;;;19.15;76.01;99311.28;4860939;29;20064;-74
2021/06/11 13:25:56;;;;;;;32.15;19.77;;;;;;;19.16;76.24;99303.75;4860807;29;20061;-73
2021/06/11 13:28:23;;;;;;;;;;;;;;;19.22;75.45;99303.09;4861263;29;20120;-73
2021/06/11 13:30:49;;;;;;;45.80;19.70;;;;;;;19.23;75.75;99304.66;4859263;29;20022;-76
2021/06/11 13:33:19;;;;;;;24.50;19.00;;;;;;;19.19;75.52;99305.78;4883949;29;20578;-73
2021/06/11 13:35:46;;;;;;;27.85;17.85;;;;;;;19.19;75.26;99303.03;4897172;29;20044;-73
2021/06/11 13:38:13;;;;;;;34.25;18.15;;;;;;;19.19;75.18;99308.56;4898015;29;20127;-73
2021/06/11 13:40:39;;;;;;;31.13;18.88;;;;;;;19.07;75.09;99300.44;4898096;29;20059;-81
2021/06/11 13:43:07;;;;;;;24.35;17.73;;;;;;;19.07;75.85;99298.47;4881343;29;20073;-78
2021/06/11 13:45:33;;;;;;;;;;;;;;;19.18;75.50;99304.22;4860573;29;20094;-78
2021/06/11 13:48:01;;;;;;;25.58;16.33;;;;;;;18.96;75.30;99276.13;4858493;29;19931;-78
2021/06/11 13:50:29;;;;;;;27.55;16.65;;;;;;;19.18;75.97;99301.44;4859109;29;20052;-78
2021/06/11 13:52:57;;;;;;;34.88;16.05;;;;;;;19.23;75.09;99304.66;4859264;29;20052;-78
2021/06/11 13:55:24;;;;;;;31.25;17.20;;;;;;;19.29;74.96;99304.38;4842255;29;20094;-74
2021/06/11 13:57:50;;;;;;;28.20;17.05;;;;;;;19.36;75.01;99299.72;4859109;29;20116;-74
2021/06/11 14:00:22;;;;;;;23.15;15.63;;;;;;;19.28;74.16;99275.06;4858801;29;20460;-74
2021/06/11 14:02:49;;;;;;;23.27;16.98;;;;;;;19.55;74.11;99306.34;4856591;29;20109;-74
2021/06/11 14:05:16;;;;;;;27.50;16.58;;;;;;;19.61;74.33;99308.44;4858539;29;20060;-73
2021/06/11 14:07:44;;;;;;;31.92;17.90;;;;;;;19.15;73.89;99230.91;4876081;29;20128;-73
2021/06/11 14:10:11;;;;;;;27.42;17.02;;;;;;;19.61;74.72;99299.31;4875767;29;20044;-74
2021/06/11 14:12:38;;;;;;;43.53;17.58;;;;;;;19.63;74.65;99299.72;4875936;29;20069;-73
2021/06/11 14:15:06;;;;;;;33.70;17.55;;;;;;;19.64;74.68;99307.72;4875929;29;20057;-73
2021/06/11 14:17:32;;;;;;;25.05;16.17;;;;;;;19.55;74.37;99303.59;4858682;29;20064;-74
2021/06/11 14:19:58;;;;;;;25.38;16.48;;;;;;;19.47;75.21;99305.47;4859013;29;20055;-75
2021/06/11 14:22:26;;;;;;;29.55;18.25;;;;;;;19.37;75.01;99306.06;4856165;29;20052;-74
2021/06/11 14:24:52;;;;;;;43.60;28.40;;;;;;;18.99;76.27;99299.53;4865738;29;20072;-76
2021/06/11 14:27:24;;;;;;;42.75;27.67;;;;;;;18.94;76.73;99303.41;4876565;29;20041;-83
2021/06/11 14:29:55;;;;;;;35.28;22.90;;;;;;;18.95;77.13;99290.38;4829569;29;20136;-82
2021/06/11 14:32:23;;;;;;;30.45;17.08;;;;;;;19.21;76.36;99309.81;4856127;29;20056;-78
2021/06/11 14:34:50;;;;;;;24.10;17.40;;;;;;;19.43;76.51;99305.38;4855777;29;20957;-78
2021/06/11 14:37:17;;;;;;;27.80;18.15;;;;;;;19.59;75.47;99298.88;4855407;29;20041;-78
2021/06/11 14:39:44;;;;;;;34.42;21.77;;;;;;;19.47;75.27;99292.41;4823883;29;20049;-78
2021/06/11 14:42:13;;;;;;;27.63;20.77;;;;;;;19.50;74.81;99276.97;4855060;29;20132;-79
2021/06/11 14:44:39;;;;;;;30.80;23.30;;;;;;;19.60;74.99;99276.34;4853523;29;20049;-79
2021/06/11 14:47:05;;;;;;;;;;;;;;;19.60;74.68;99292.97;4866167;29;20045;-78
2021/06/11 14:49:32;;;;;;;42.95;26.48;;;;;;;19.63;74.54;99285.88;4872875;29;19929;-79
2021/06/11 14:51:59;;;;;;;49.88;39.25;;;;;;;19.37;74.71;99279.19;4872734;29;20515;-79
2021/06/11 14:54:32;;;;;;;39.15;30.50;;;;;;;18.90;77.08;99269.28;4860598;29;20056;-78
2021/06/11 14:57:00;;;;;;;44.27;31.93;;;;;;;18.92;77.94;99289.13;4871186;29;20048;-78
2021/06/11 14:59:26;;;;;;;49.40;36.67;;;;;;;18.95;78.16;99282.06;4872034;29;20040;-78
2021/06/11 15:01:53;;;;;;;39.28;32.03;;;;;;;18.93;78.34;99293.50;4855221;29;20041;-74
2021/06/11 15:04:19;;;;;;;25.88;19.52;;;;;;;18.70;78.65;99295.41;4871331;29;20044;-77
2021/06/11 15:06:45;;;;;;;26.15;17.88;;;;;;;18.39;79.37;99290.91;4855126;29;20474;-77
2021/06/11 15:09:12;;;;;;;32.90;27.00;;;;;;;18.31;80.26;99301.81;4871077;29;20037;-77
2021/06/11 15:11:38;;;;;;;51.00;39.95;;;;;;;18.28;81.13;99301.75;4871050;29;20113;-77
2021/06/11 15:14:04;;;;;;;51.95;41.72;;;;;;;18.35;81.29;99298.34;4874137;29;20096;-77
2021/06/11 15:16:33;;;;;;;60.20;48.78;;;;;;;18.23;81.75;99288.22;4859620;29;20048;-77
2021/06/11 15:18:59;;;;;;;46.38;35.20;;;;;;;18.20;81.69;99294.47;4856018;29;20128;-77
2021/06/11 15:21:25;;;;;;;37.70;29.65;;;;;;;18.24;82.07;99301.66;4870460;29;20037;-77
2021/06/11 15:23:51;;;;;;;40.72;28.38;;;;;;;18.19;81.84;99298.41;4855434;29;20041;-77
2021/06/11 15:26:18;;;;;;;35.22;26.02;;;;;;;18.12;81.78;99299.06;4859477;29;20128;-75
2021/06/11 15:28:45;;;;;;;26.92;21.38;;;;;;;18.14;81.72;99304.22;4860323;29;20422;-76
2021/06/11 15:31:13;;;;;;;27.40;21.20;;;;;;;18.14;81.87;99301.44;4868590;29;20041;-88
2021/06/11 15:33:39;;;;;;;24.40;18.60;;;;;;;18.26;81.41;99320.69;4863953;29;20102;-78
2021/06/11 15:36:06;;;;;;;36.27;25.70;;;;;;;18.27;81.66;99305.66;4872520;29;20285;-88
2021/06/11 15:38:34;;;;;;;48.80;37.45;;;;;;;18.27;81.96;99308.44;4881287;29;20045;-72
2021/06/11 15:41:03;;;;;;;48.28;39.30;;;;;;;18.28;82.11;99308.09;4889374;29;20068;-75
2021/06/11 15:43:33;;;;;;;50.03;37.20;;;;;;;18.34;82.13;99314.13;4889451;29;20040;-77
2021/06/11 15:46:01;;;;;;;39.20;30.13;;;;;;;18.36;81.42;99322.06;4884141;29;20138;-77
2021/06/11 15:48:28;;;;;;;44.75;32.33;;;;;;;18.44;81.84;99321.03;4880004;29;20041;-75
2021/06/11 15:50:56;;;;;;;34.58;24.92;;;;;;;18.49;81.57;99317.97;4880250;29;20041;-74
2021/06/11 15:53:24;;;;;;;34.90;24.00;;;;;;;18.48;81.56;99314.41;4863839;29;20464;-75
2021/06/11 15:55:51;;;;;;;30.27;23.67;;;;;;;18.48;81.80;99306.09;4880461;29;20047;-74
2021/06/11 15:58:19;;;;;;;;;;;;;;;18.46;81.64;99308.44;4880135;29;20101;-75
2021/06/11 16:00:46;;;;;;;34.90;22.98;;;;;;;18.42;81.85;99295.69;4880295;29;20022;-75
2021/06/11 16:03:12;;;;;;;;;;;;;;;18.41;81.66;99303.22;4883348;29;20040;-78
2021/06/11 16:05:39;;;;;;;34.03;20.83;;;;;;;18.39;81.98;99302.75;4885444;29;20352;-75
2021/06/11 16:08:05;;;;;;;31.40;20.77;;;;;;;18.34;82.17;99300.28;4892045;29;20044;-77
2021/06/11 16:10:31;;;;;;;28.17;19.52;;;;;;;18.38;81.72;99300.38;4879837;29;21730;-75
2021/06/11 16:12:57;;;;;;;34.43;21.97;;;;;;;18.35;82.01;99298.34;4863365;29;20053;-76
2021/06/11 16:15:24;;;;;;;25.80;19.70;;;;;;;18.26;82.19;99281.94;4883378;29;20537;-76
2021/06/11 16:17:50;;;;;;;25.50;19.48;;;;;;;18.30;81.92;99291.09;4883811;29;20515;-75
2021/06/11 16:20:16;;;;;;;31.52;21.42;;;;;;;18.23;82.15;99285.44;4880202;29;20064;-77
2021/06/11 16:22:44;;;;;;;30.67;20.57;;;;;;;18.21;82.26;99293.28;4881186;29;20041;-75
2021/06/11 16:25:11;;;;;;;30.98;23.50;;;;;;;18.08;82.50;99276.88;4862151;29;20499;-75
2021/06/11 16:27:39;;;;;;;28.98;22.10;;;;;;;18.17;82.69;99279.38;4875815;29;20037;-87
2021/06/11 16:30:08;;;;;;;30.95;25.80;;;;;;;18.18;82.50;99291.25;4878804;29;20071;-77
2021/06/11 16:32:34;;;;;;;30.73;25.33;;;;;;;18.12;82.54;99284.44;4888334;29;20431;-73
2021/06/11 16:35:01;;;;;;;30.05;22.95;;;;;;;18.09;82.82;99285.97;4881749;29;20033;-74
2021/06/11 16:37:33;;;;;;;30.23;23.65;;;;;;;18.01;83.00;99290.53;4877023;29;20558;-74
2021/06/11 16:40:12;;;;;;;24.92;20.80;;;;;;;18.07;82.83;99291.03;4877930;29;20037;-74
2021/06/11 16:42:38;;;;;;;27.42;21.10;;;;;;;18.10;82.74;99289.50;4874544;29;20071;-74
2021/06/11 16:45:06;;;;;;;27.02;20.50;;;;;;;18.01;82.75;99292.50;4885557;29;20052;-74
2021/06/11 16:47:35;;;;;;;33.53;22.58;;;;;;;17.84;83.24;99275.16;4890734;29;20051;-76
2021/06/11 16:50:01;;;;;;;32.47;21.60;;;;;;;17.94;83.35;99292.34;4891709;29;20036;-85
2021/06/11 16:52:30;;;;;;;34.63;21.48;;;;;;;17.92;83.32;99298.25;4885919;29;20036;-89
2021/06/11 16:54:57;;;;;;;37.05;23.73;;;;;;;17.95;83.57;99288.44;4855923;29;20410;-79
2021/06/11 16:57:23;;;;;;;31.77;21.50;;;;;;;17.94;83.25;99292.34;4888969;29;20028;-80
2021/06/11 16:59:50;;;;;;;37.88;23.65;;;;;;;17.90;83.60;99280.41;4887579;29;20495;-79
2021/06/11 17:02:16;;;;;;;30.10;21.90;;;;;;;17.93;83.38;99287.97;4877820;29;20041;-77
2021/06/11 17:04:42;;;;;;;28.53;21.53;;;;;;;17.95;83.17;99292.00;4877124;29;20099;-74
2021/06/11 17:07:08;;;;;;;39.72;23.63;;;;;;;17.85;83.16;99284.28;4877110;29;20044;-82
2021/06/11 17:09:34;;;;;;;38.20;28.63;;;;;;;17.80;83.57;99290.06;4859992;29;20049;-81
2021/06/11 17:12:01;;;;;;;;;;;;;;;17.79;83.57;99274.66;4847469;29;20061;-79
2021/06/11 17:14:27;;;;;;;34.53;26.30;;;;;;;17.72;83.36;99280.81;4877106;29;19923;-81
2021/06/11 17:16:53;;;;;;;41.17;31.65;;;;;;;17.63;83.49;99266.38;4875638;29;20318;-80
2021/06/11 17:19:19;;;;;;;41.40;30.77;;;;;;;17.67;83.61;99272.78;4875737;29;20139;-83
2021/06/11 17:21:45;;;;;;;37.90;27.47;;;;;;;17.61;83.53;99263.16;4874161;29;20074;-78
2021/06/11 17:24:23;;;;;;;31.02;25.38;;;;;;;17.64;83.86;99286.53;4884928;29;20385;-81
2021/06/11 17:26:49;;;;;;;39.80;29.00;;;;;;;17.69;84.01;99275.19;4886618;29;20554;-82
2021/06/11 17:29:45;;;;;;;39.38;27.95;;;;;;;17.74;83.85;99277.66;4874613;29;20041;-80
2021/06/11 17:32:15;;;;;;;34.28;22.58;;;;;;;17.72;83.68;99271.72;4884193;29;20470;-80
2021/06/11 17:34:44;;;;;;;29.58;24.02;;;;;;;17.68;83.78;99263.34;4875161;29;20064;-80
2021/06/11 17:37:17;;;;;;;30.75;24.08;;;;;;;17.68;84.04;99265.28;4872313;29;20064;-83
2021/06/11 17:39:44;;;;;;;35.33;27.50;;;;;;;17.73;83.77;99267.78;4872760;29;20171;-79
2021/06/11 17:42:13;;;;;;;32.88;24.83;;;;;;;17.76;83.90;99270.66;4870159;29;20040;-79
2021/06/11 17:44:41;;;;;;;31.88;23.40;;;;;;;17.80;83.77;99271.53;4859148;29;20053;-85
2021/06/11 17:47:08;;;;;;;33.05;25.52;;;;;;;17.92;83.49;99275.31;4879483;29;20041;-82
2021/06/11 17:49:38;;;;;;;35.05;26.10;;;;;;;17.84;83.22;99271.59;4870857;29;20525;-86
2021/06/11 17:52:09;;;;;;;42.70;29.35;;;;;;;17.68;83.54;99268.03;4880604;29;20049;-81
2021/06/11 17:54:38;;;;;;;42.15;31.73;;;;;;;17.57;83.86;99262.28;4855038;29;20045;-87
2021/06/11 17:57:07;;;;;;;43.00;33.38;;;;;;;17.68;83.65;99277.16;4871646;29;20136;-78
2021/06/11 17:59:39;;;;;;;45.45;35.47;;;;;;;17.64;83.58;99283.75;4881980;29;20618;-80
2021/06/11 18:02:15;;;;;;;45.22;33.40;;;;;;;17.62;83.71;99281.38;4873505;29;20577;-80
2021/06/11 18:04:47;;;;;;;45.20;31.15;;;;;;;17.49;83.76;99264.09;4870771;29;20040;-85
2021/06/11 18:07:19;;;;;;;46.63;33.10;;;;;;;17.53;83.94;99287.09;4875414;29;20036;-86
2021/06/11 18:09:50;;;;;;;40.30;30.17;;;;;;;17.41;83.85;99265.09;4880961;29;20047;-81
2021/06/11 18:12:21;;;;;;;40.83;28.17;;;;;;;17.48;83.88;99284.63;4878396;29;20061;-78
2021/06/11 18:14:59;;;;;;;39.13;29.10;;;;;;;17.49;84.23;99288.19;4839916;29;20048;-86
2021/06/11 18:17:28;;;;;;;36.42;25.92;;;;;;;17.42;84.00;99277.75;4880077;29;20210;-77
2021/06/11 18:19:55;;;;;;;38.75;27.48;;;;;;;17.38;84.08;99263.03;4872379;29;20041;-79
2021/06/11 18:22:45;;;;;;;40.85;28.02;;;;;;;17.58;83.80;99270.25;4886504;29;20491;-88
2021/06/11 18:25:33;;;;;;;37.03;28.15;;;;;;;17.65;83.68;99268.78;4882432;29;20096;-79
2021/06/11 18:31:51;;;;;;;30.90;25.75;;;;;;;17.60;83.21;99275.41;4793295;29;20056;-74
2021/06/11 18:34:17;;;;;;;31.17;25.98;;;;;;;17.46;83.66;99261.25;4795930;29;20528;-72